sensor_id;sensor_type;location;lat;lon;timestamp;P1;durP1;ratioP1;P2;durP2;ratioP2
66143;SDS011;52947;50.842;6.084;2023-05-10T18:32:09;29.67;;;24.00;;
66143;SDS011;52947;50.842;6.084;2023-05-10T18:34:37;8.70;;;6.60;;
66143;SDS011;52947;50.842;6.084;2023-05-10T18:37:05;8.80;;;6.25;;
66143;SDS011;52947;50.842;6.084;2023-05-10T18:39:35;5.57;;;4.60;;
66143;SDS011;52947;50.842;6.084;2023-05-10T18:42:03;10.75;;;7.85;;
66143;SDS011;52947;50.842;6.084;2023-05-10T18:47:00;25.63;;;15.70;;
66143;SDS011;52947;50.842;6.084;2023-05-10T18:49:29;12.43;;;7.53;;
66143;SDS011;52947;50.842;6.084;2023-05-10T18:51:57;24.58;;;15.50;;
66143;SDS011;52947;50.842;6.084;2023-05-10T18:54:25;33.25;;;19.23;;
66143;SDS011;52947;50.842;6.084;2023-05-10T18:56:53;33.35;;;20.95;;
66143;SDS011;52947;50.842;6.084;2023-05-10T18:59:22;46.85;;;27.17;;
66143;SDS011;52947;50.842;6.084;2023-05-10T19:01:53;10.98;;;6.53;;
66143;SDS011;52947;50.842;6.084;2023-05-10T19:04:22;21.40;;;13.27;;
66143;SDS011;52947;50.842;6.084;2023-05-10T19:06:52;30.23;;;16.33;;
66143;SDS011;52947;50.842;6.084;2023-05-10T19:09:21;22.83;;;13.50;;
66143;SDS011;52947;50.842;6.084;2023-05-10T19:11:49;36.90;;;20.50;;
66143;SDS011;52947;50.842;6.084;2023-05-10T19:14:17;21.03;;;10.40;;
66143;SDS011;52947;50.842;6.084;2023-05-10T19:16:46;29.35;;;15.48;;
66143;SDS011;52947;50.842;6.084;2023-05-10T19:19:14;29.23;;;15.13;;
66143;SDS011;52947;50.842;6.084;2023-05-10T19:21:45;5.35;;;2.92;;
66143;SDS011;52947;50.842;6.084;2023-05-10T19:24:15;5.30;;;2.25;;
66143;SDS011;52947;50.842;6.084;2023-05-10T19:26:44;11.75;;;5.60;;
66143;SDS011;52947;50.842;6.084;2023-05-10T19:29:14;6.07;;;2.20;;
66143;SDS011;52947;50.842;6.084;2023-05-10T19:31:42;2.72;;;1.90;;
66143;SDS011;52947;50.842;6.084;2023-05-10T19:34:10;4.30;;;1.98;;
66143;SDS011;52947;50.842;6.084;2023-05-10T19:36:37;3.20;;;1.85;;
66143;SDS011;52947;50.842;6.084;2023-05-10T19:39:05;2.53;;;1.75;;
66143;SDS011;52947;50.842;6.084;2023-05-10T19:41:35;3.70;;;2.30;;
66143;SDS011;52947;50.842;6.084;2023-05-10T19:46:30;27.40;;;10.70;;
66143;SDS011;52947;50.842;6.084;2023-05-10T19:48:58;10.52;;;4.72;;
66143;SDS011;52947;50.842;6.084;2023-05-10T19:51:26;9.25;;;4.80;;
66143;SDS011;52947;50.842;6.084;2023-05-10T19:53:54;4.35;;;2.75;;
66143;SDS011;52947;50.842;6.084;2023-05-10T19:56:22;8.70;;;4.32;;
66143;SDS011;52947;50.842;6.084;2023-05-10T19:58:53;12.02;;;5.50;;
66143;SDS011;52947;50.842;6.084;2023-05-10T20:03:49;8.30;;;4.57;;
66143;SDS011;52947;50.842;6.084;2023-05-10T20:06:17;16.38;;;7.32;;
66143;SDS011;52947;50.842;6.084;2023-05-10T20:08:44;8.68;;;4.10;;
66143;SDS011;52947;50.842;6.084;2023-05-10T20:11:12;10.90;;;5.03;;
66143;SDS011;52947;50.842;6.084;2023-05-10T20:13:40;9.32;;;4.45;;
66143;SDS011;52947;50.842;6.084;2023-05-10T20:16:09;14.90;;;6.30;;
66143;SDS011;52947;50.842;6.084;2023-05-10T20:21:05;10.35;;;4.80;;
66143;SDS011;52947;50.842;6.084;2023-05-10T20:23:33;16.10;;;7.97;;
66143;SDS011;52947;50.842;6.084;2023-05-10T20:26:01;11.80;;;7.05;;
66143;SDS011;52947;50.842;6.084;2023-05-10T20:28:28;21.15;;;9.50;;
66143;SDS011;52947;50.842;6.084;2023-05-10T20:30:56;11.02;;;6.80;;
66143;SDS011;52947;50.842;6.084;2023-05-10T20:33:27;15.13;;;7.35;;
66143;SDS011;52947;50.842;6.084;2023-05-10T20:35:55;10.73;;;6.47;;
66143;SDS011;52947;50.842;6.084;2023-05-10T20:38:23;13.00;;;7.60;;
66143;SDS011;52947;50.842;6.084;2023-05-10T20:40:51;15.15;;;8.65;;
66143;SDS011;52947;50.842;6.084;2023-05-10T20:43:19;14.88;;;7.93;;
66143;SDS011;52947;50.842;6.084;2023-05-10T20:45:47;15.00;;;8.02;;
66143;SDS011;52947;50.842;6.084;2023-05-10T20:48:15;15.50;;;8.50;;
66143;SDS011;52947;50.842;6.084;2023-05-10T20:50:46;11.85;;;7.78;;
66143;SDS011;52947;50.842;6.084;2023-05-10T20:53:14;15.15;;;8.57;;
66143;SDS011;52947;50.842;6.084;2023-05-10T20:58:11;13.50;;;8.45;;
66143;SDS011;52947;50.842;6.084;2023-05-10T21:00:39;15.52;;;9.65;;
66143;SDS011;52947;50.842;6.084;2023-05-10T21:03:07;13.20;;;8.63;;
66143;SDS011;52947;50.842;6.084;2023-05-10T21:05:35;13.07;;;8.70;;
66143;SDS011;52947;50.842;6.084;2023-05-10T21:08:04;15.85;;;9.48;;
66143;SDS011;52947;50.842;6.084;2023-05-10T21:12:59;11.82;;;8.52;;
66143;SDS011;52947;50.842;6.084;2023-05-10T21:15:28;15.57;;;9.55;;
66143;SDS011;52947;50.842;6.084;2023-05-10T21:17:55;13.90;;;9.30;;
66143;SDS011;52947;50.842;6.084;2023-05-10T21:20:23;16.13;;;9.52;;
66143;SDS011;52947;50.842;6.084;2023-05-10T21:22:51;13.93;;;8.90;;
66143;SDS011;52947;50.842;6.084;2023-05-10T21:25:20;14.32;;;8.85;;
66143;SDS011;52947;50.842;6.084;2023-05-10T21:27:49;14.63;;;7.97;;
66143;SDS011;52947;50.842;6.084;2023-05-10T21:30:17;13.80;;;8.77;;
66143;SDS011;52947;50.842;6.084;2023-05-10T21:32:45;11.10;;;7.53;;
66143;SDS011;52947;50.842;6.084;2023-05-10T21:35:13;9.55;;;7.28;;
66143;SDS011;52947;50.842;6.084;2023-05-10T21:37:41;13.57;;;6.97;;
66143;SDS011;52947;50.842;6.084;2023-05-10T21:40:10;12.25;;;6.95;;
66143;SDS011;52947;50.842;6.084;2023-05-10T21:42:40;10.43;;;6.60;;
66143;SDS011;52947;50.842;6.084;2023-05-10T21:45:08;9.07;;;6.38;;
66143;SDS011;52947;50.842;6.084;2023-05-10T21:47:36;9.63;;;6.30;;
66143;SDS011;52947;50.842;6.084;2023-05-10T21:50:04;8.07;;;5.63;;
66143;SDS011;52947;50.842;6.084;2023-05-10T21:52:35;10.25;;;6.13;;
66143;SDS011;52947;50.842;6.084;2023-05-10T21:55:03;8.82;;;5.00;;
66143;SDS011;52947;50.842;6.084;2023-05-10T21:57:33;8.60;;;5.07;;
66143;SDS011;52947;50.842;6.084;2023-05-10T22:00:04;7.68;;;5.15;;
66143;SDS011;52947;50.842;6.084;2023-05-10T22:02:33;8.38;;;5.60;;
66143;SDS011;52947;50.842;6.084;2023-05-10T22:05:01;8.73;;;4.80;;
66143;SDS011;52947;50.842;6.084;2023-05-10T22:07:30;7.88;;;4.95;;
66143;SDS011;52947;50.842;6.084;2023-05-10T22:09:58;7.32;;;4.55;;
66143;SDS011;52947;50.842;6.084;2023-05-10T22:12:26;7.20;;;4.40;;
66143;SDS011;52947;50.842;6.084;2023-05-10T22:14:54;7.60;;;4.68;;
66143;SDS011;52947;50.842;6.084;2023-05-10T22:17:37;9.10;;;5.18;;
66143;SDS011;52947;50.842;6.084;2023-05-10T22:20:06;8.25;;;5.05;;
66143;SDS011;52947;50.842;6.084;2023-05-10T22:22:35;7.53;;;5.50;;
66143;SDS011;52947;50.842;6.084;2023-05-10T22:25:03;10.95;;;5.93;;
66143;SDS011;52947;50.842;6.084;2023-05-10T22:27:32;9.57;;;5.90;;
66143;SDS011;52947;50.842;6.084;2023-05-10T22:30:00;7.93;;;4.35;;
66143;SDS011;52947;50.842;6.084;2023-05-10T22:32:29;9.50;;;5.38;;
66143;SDS011;52947;50.842;6.084;2023-05-10T22:37:26;6.80;;;4.63;;
66143;SDS011;52947;50.842;6.084;2023-05-10T22:39:54;8.25;;;5.05;;
66143;SDS011;52947;50.842;6.084;2023-05-10T22:42:22;10.80;;;4.72;;
66143;SDS011;52947;50.842;6.084;2023-05-10T22:44:50;6.05;;;3.90;;
66143;SDS011;52947;50.842;6.084;2023-05-10T22:47:18;6.38;;;3.90;;
66143;SDS011;52947;50.842;6.084;2023-05-10T22:49:46;12.88;;;4.05;;
66143;SDS011;52947;50.842;6.084;2023-05-10T22:52:15;10.07;;;3.70;;
66143;SDS011;52947;50.842;6.084;2023-05-10T22:54:43;6.60;;;4.13;;
66143;SDS011;52947;50.842;6.084;2023-05-10T22:57:11;8.30;;;5.07;;
66143;SDS011;52947;50.842;6.084;2023-05-10T22:59:39;9.45;;;5.75;;
66143;SDS011;52947;50.842;6.084;2023-05-10T23:02:07;6.78;;;4.78;;
66143;SDS011;52947;50.842;6.084;2023-05-10T23:04:35;11.40;;;6.20;;
66143;SDS011;52947;50.842;6.084;2023-05-10T23:07:03;9.48;;;5.82;;
66143;SDS011;52947;50.842;6.084;2023-05-10T23:09:33;7.38;;;5.35;;
66143;SDS011;52947;50.842;6.084;2023-05-10T23:14:28;8.63;;;5.75;;
66143;SDS011;52947;50.842;6.084;2023-05-10T23:16:56;12.75;;;6.10;;
66143;SDS011;52947;50.842;6.084;2023-05-10T23:19:24;11.02;;;5.53;;
66143;SDS011;52947;50.842;6.084;2023-05-10T23:21:52;13.55;;;5.70;;
66143;SDS011;52947;50.842;6.084;2023-05-10T23:24:20;12.63;;;7.20;;
66143;SDS011;52947;50.842;6.084;2023-05-10T23:26:49;13.15;;;8.25;;
66143;SDS011;52947;50.842;6.084;2023-05-10T23:29:17;13.40;;;8.25;;
66143;SDS011;52947;50.842;6.084;2023-05-10T23:31:46;10.32;;;6.43;;
66143;SDS011;52947;50.842;6.084;2023-05-10T23:34:14;11.25;;;7.43;;
66143;SDS011;52947;50.842;6.084;2023-05-10T23:36:42;21.92;;;6.78;;
66143;SDS011;52947;50.842;6.084;2023-05-10T23:39:10;15.02;;;7.18;;
66143;SDS011;52947;50.842;6.084;2023-05-10T23:41:38;11.27;;;7.15;;
66143;SDS011;52947;50.842;6.084;2023-05-10T23:44:08;9.65;;;6.55;;
66143;SDS011;52947;50.842;6.084;2023-05-10T23:46:35;12.10;;;6.32;;
66143;SDS011;52947;50.842;6.084;2023-05-10T23:49:03;12.40;;;6.80;;
66143;SDS011;52947;50.842;6.084;2023-05-10T23:51:31;13.13;;;7.97;;
66143;SDS011;52947;50.842;6.084;2023-05-10T23:53:59;10.05;;;6.32;;
66143;SDS011;52947;50.842;6.084;2023-05-10T23:56:27;8.80;;;6.13;;
66143;SDS011;52947;50.842;6.084;2023-05-10T23:58:55;10.43;;;7.15;;
